sensor_id;sensor_type;location;lat;lon;timestamp;P1;durP1;ratioP1;P2;durP2;ratioP2
43807;SDS011;29438;50.664;10.098;2022-12-07T00:01:39;32.33;;;11.95;;
43807;SDS011;29438;50.664;10.098;2022-12-07T00:04:06;24.58;;;9.57;;
43807;SDS011;29438;50.664;10.098;2022-12-07T00:06:37;22.55;;;9.90;;
43807;SDS011;29438;50.664;10.098;2022-12-07T00:09:04;25.55;;;10.25;;
43807;SDS011;29438;50.664;10.098;2022-12-07T00:11:31;30.90;;;13.07;;
43807;SDS011;29438;50.664;10.098;2022-12-07T00:13:59;23.05;;;9.95;;
43807;SDS011;29438;50.664;10.098;2022-12-07T00:16:28;20.90;;;7.72;;
43807;SDS011;29438;50.664;10.098;2022-12-07T00:18:55;15.13;;;6.57;;
43807;SDS011;29438;50.664;10.098;2022-12-07T00:21:21;26.15;;;11.60;;
43807;SDS011;29438;50.664;10.098;2022-12-07T00:23:49;18.70;;;7.18;;
43807;SDS011;29438;50.664;10.098;2022-12-07T00:26:17;15.35;;;6.00;;
43807;SDS011;29438;50.664;10.098;2022-12-07T00:28:54;15.10;;;5.22;;
43807;SDS011;29438;50.664;10.098;2022-12-07T00:31:22;17.58;;;6.95;;
43807;SDS011;29438;50.664;10.098;2022-12-07T00:33:50;13.30;;;4.40;;
43807;SDS011;29438;50.664;10.098;2022-12-07T00:36:17;8.73;;;3.42;;
43807;SDS011;29438;50.664;10.098;2022-12-07T00:38:44;13.48;;;4.90;;
43807;SDS011;29438;50.664;10.098;2022-12-07T00:41:11;14.85;;;5.68;;
43807;SDS011;29438;50.664;10.098;2022-12-07T00:43:38;11.63;;;4.60;;
43807;SDS011;29438;50.664;10.098;2022-12-07T00:46:04;12.10;;;4.57;;
43807;SDS011;29438;50.664;10.098;2022-12-07T00:48:31;9.95;;;4.05;;
43807;SDS011;29438;50.664;10.098;2022-12-07T00:50:57;9.23;;;3.78;;
43807;SDS011;29438;50.664;10.098;2022-12-07T00:53:23;11.02;;;4.00;;
43807;SDS011;29438;50.664;10.098;2022-12-07T00:55:49;11.20;;;3.20;;
43807;SDS011;29438;50.664;10.098;2022-12-07T00:58:15;9.70;;;3.38;;
43807;SDS011;29438;50.664;10.098;2022-12-07T01:00:41;9.05;;;3.75;;
43807;SDS011;29438;50.664;10.098;2022-12-07T01:03:08;10.20;;;4.07;;
43807;SDS011;29438;50.664;10.098;2022-12-07T01:05:34;8.73;;;3.03;;
43807;SDS011;29438;50.664;10.098;2022-12-07T01:08:00;9.40;;;3.40;;
43807;SDS011;29438;50.664;10.098;2022-12-07T01:10:26;8.82;;;3.00;;
43807;SDS011;29438;50.664;10.098;2022-12-07T01:12:52;9.45;;;3.10;;
43807;SDS011;29438;50.664;10.098;2022-12-07T01:15:17;9.40;;;3.05;;
43807;SDS011;29438;50.664;10.098;2022-12-07T01:17:43;7.03;;;2.83;;
43807;SDS011;29438;50.664;10.098;2022-12-07T01:20:09;9.82;;;3.33;;
43807;SDS011;29438;50.664;10.098;2022-12-07T01:22:38;10.57;;;3.28;;
43807;SDS011;29438;50.664;10.098;2022-12-07T01:25:06;9.73;;;3.28;;
43807;SDS011;29438;50.664;10.098;2022-12-07T01:27:33;8.43;;;3.40;;
43807;SDS011;29438;50.664;10.098;2022-12-07T01:29:59;8.52;;;3.17;;
43807;SDS011;29438;50.664;10.098;2022-12-07T01:32:25;9.15;;;3.40;;
43807;SDS011;29438;50.664;10.098;2022-12-07T01:34:51;9.43;;;3.60;;
43807;SDS011;29438;50.664;10.098;2022-12-07T01:37:16;7.20;;;2.90;;
43807;SDS011;29438;50.664;10.098;2022-12-07T01:39:42;8.85;;;3.63;;
43807;SDS011;29438;50.664;10.098;2022-12-07T01:42:11;12.13;;;3.40;;
43807;SDS011;29438;50.664;10.098;2022-12-07T01:47:39;11.85;;;3.95;;
43807;SDS011;29438;50.664;10.098;2022-12-07T01:50:06;11.20;;;4.03;;
43807;SDS011;29438;50.664;10.098;2022-12-07T01:52:32;9.88;;;3.50;;
43807;SDS011;29438;50.664;10.098;2022-12-07T01:55:04;11.45;;;4.28;;
43807;SDS011;29438;50.664;10.098;2022-12-07T01:57:32;9.48;;;3.58;;
43807;SDS011;29438;50.664;10.098;2022-12-07T02:00:01;13.30;;;4.00;;
43807;SDS011;29438;50.664;10.098;2022-12-07T02:02:36;10.57;;;4.22;;
43807;SDS011;29438;50.664;10.098;2022-12-07T02:05:06;10.75;;;4.45;;
43807;SDS011;29438;50.664;10.098;2022-12-07T02:07:33;13.52;;;5.00;;
43807;SDS011;29438;50.664;10.098;2022-12-07T02:15:45;13.23;;;4.78;;
43807;SDS011;29438;50.664;10.098;2022-12-07T02:24:14;12.98;;;4.93;;
43807;SDS011;29438;50.664;10.098;2022-12-07T02:40:29;16.30;;;5.88;;
43807;SDS011;29438;50.664;10.098;2022-12-07T02:43:02;14.90;;;5.50;;
43807;SDS011;29438;50.664;10.098;2022-12-07T02:45:32;19.00;;;6.57;;
43807;SDS011;29438;50.664;10.098;2022-12-07T02:48:01;17.52;;;6.07;;
43807;SDS011;29438;50.664;10.098;2022-12-07T02:50:28;19.08;;;6.28;;
43807;SDS011;29438;50.664;10.098;2022-12-07T02:52:54;17.02;;;6.15;;
43807;SDS011;29438;50.664;10.098;2022-12-07T02:55:20;21.20;;;7.05;;
43807;SDS011;29438;50.664;10.098;2022-12-07T03:00:36;15.75;;;5.97;;
43807;SDS011;29438;50.664;10.098;2022-12-07T03:03:10;21.23;;;6.35;;
43807;SDS011;29438;50.664;10.098;2022-12-07T03:16:25;14.98;;;5.63;;
43807;SDS011;29438;50.664;10.098;2022-12-07T03:19:06;13.75;;;5.15;;
43807;SDS011;29438;50.664;10.098;2022-12-07T03:21:37;14.80;;;5.35;;
43807;SDS011;29438;50.664;10.098;2022-12-07T03:24:07;16.80;;;5.22;;
43807;SDS011;29438;50.664;10.098;2022-12-07T03:26:38;12.30;;;4.60;;
43807;SDS011;29438;50.664;10.098;2022-12-07T03:29:12;14.98;;;4.95;;
43807;SDS011;29438;50.664;10.098;2022-12-07T03:31:46;14.75;;;5.13;;
43807;SDS011;29438;50.664;10.098;2022-12-07T03:34:29;12.00;;;4.47;;
43807;SDS011;29438;50.664;10.098;2022-12-07T03:39:33;12.73;;;5.03;;
43807;SDS011;29438;50.664;10.098;2022-12-07T03:42:18;13.32;;;4.75;;
43807;SDS011;29438;50.664;10.098;2022-12-07T03:44:44;11.55;;;4.75;;
43807;SDS011;29438;50.664;10.098;2022-12-07T03:47:20;12.82;;;4.57;;
43807;SDS011;29438;50.664;10.098;2022-12-07T03:50:03;12.63;;;4.60;;
43807;SDS011;29438;50.664;10.098;2022-12-07T03:52:54;14.88;;;5.05;;
43807;SDS011;29438;50.664;10.098;2022-12-07T03:55:28;13.27;;;4.22;;
43807;SDS011;29438;50.664;10.098;2022-12-07T03:58:05;12.90;;;4.60;;
43807;SDS011;29438;50.664;10.098;2022-12-07T04:00:33;12.23;;;4.45;;
43807;SDS011;29438;50.664;10.098;2022-12-07T04:02:59;12.15;;;4.72;;
43807;SDS011;29438;50.664;10.098;2022-12-07T04:05:25;13.82;;;4.55;;
43807;SDS011;29438;50.664;10.098;2022-12-07T04:07:51;13.80;;;4.95;;
43807;SDS011;29438;50.664;10.098;2022-12-07T04:10:17;13.65;;;4.30;;
43807;SDS011;29438;50.664;10.098;2022-12-07T04:12:43;12.68;;;4.75;;
43807;SDS011;29438;50.664;10.098;2022-12-07T04:15:08;10.65;;;4.20;;
43807;SDS011;29438;50.664;10.098;2022-12-07T04:17:35;14.35;;;5.00;;
43807;SDS011;29438;50.664;10.098;2022-12-07T04:20:01;12.68;;;4.03;;
43807;SDS011;29438;50.664;10.098;2022-12-07T04:22:27;12.27;;;4.45;;
43807;SDS011;29438;50.664;10.098;2022-12-07T04:24:52;17.35;;;5.82;;
43807;SDS011;29438;50.664;10.098;2022-12-07T04:27:18;19.65;;;6.63;;
43807;SDS011;29438;50.664;10.098;2022-12-07T04:29:43;18.30;;;5.72;;
43807;SDS011;29438;50.664;10.098;2022-12-07T04:32:09;18.45;;;6.18;;
43807;SDS011;29438;50.664;10.098;2022-12-07T04:34:34;17.73;;;6.35;;
43807;SDS011;29438;50.664;10.098;2022-12-07T04:37:00;22.48;;;8.00;;
43807;SDS011;29438;50.664;10.098;2022-12-07T04:39:27;20.75;;;7.15;;
43807;SDS011;29438;50.664;10.098;2022-12-07T04:41:54;26.08;;;8.30;;
43807;SDS011;29438;50.664;10.098;2022-12-07T04:44:20;24.92;;;8.00;;
43807;SDS011;29438;50.664;10.098;2022-12-07T04:46:46;26.55;;;7.45;;
43807;SDS011;29438;50.664;10.098;2022-12-07T04:49:12;22.70;;;7.65;;
43807;SDS011;29438;50.664;10.098;2022-12-07T04:51:39;27.75;;;8.10;;
43807;SDS011;29438;50.664;10.098;2022-12-07T04:54:04;28.92;;;8.77;;
43807;SDS011;29438;50.664;10.098;2022-12-07T04:56:30;24.60;;;8.38;;
43807;SDS011;29438;50.664;10.098;2022-12-07T04:58:56;23.98;;;8.68;;
43807;SDS011;29438;50.664;10.098;2022-12-07T05:01:22;23.00;;;7.65;;
43807;SDS011;29438;50.664;10.098;2022-12-07T05:03:48;23.17;;;7.93;;
43807;SDS011;29438;50.664;10.098;2022-12-07T05:06:14;28.65;;;8.43;;
43807;SDS011;29438;50.664;10.098;2022-12-07T05:08:40;27.75;;;8.98;;
43807;SDS011;29438;50.664;10.098;2022-12-07T05:11:06;24.73;;;7.63;;
43807;SDS011;29438;50.664;10.098;2022-12-07T05:13:32;24.95;;;8.88;;
43807;SDS011;29438;50.664;10.098;2022-12-07T05:15:58;28.00;;;8.57;;
43807;SDS011;29438;50.664;10.098;2022-12-07T05:18:24;26.95;;;9.35;;
43807;SDS011;29438;50.664;10.098;2022-12-07T05:20:50;28.60;;;8.85;;
43807;SDS011;29438;50.664;10.098;2022-12-07T05:23:16;24.60;;;8.18;;
43807;SDS011;29438;50.664;10.098;2022-12-07T05:25:43;25.45;;;7.80;;
43807;SDS011;29438;50.664;10.098;2022-12-07T05:28:08;22.58;;;7.07;;
43807;SDS011;29438;50.664;10.098;2022-12-07T05:30:34;20.17;;;6.35;;
43807;SDS011;29438;50.664;10.098;2022-12-07T05:33:00;23.92;;;7.40;;
43807;SDS011;29438;50.664;10.098;2022-12-07T05:35:26;23.98;;;7.22;;
43807;SDS011;29438;50.664;10.098;2022-12-07T05:37:51;23.73;;;7.55;;
43807;SDS011;29438;50.664;10.098;2022-12-07T05:40:17;23.35;;;8.32;;
43807;SDS011;29438;50.664;10.098;2022-12-07T05:42:44;22.60;;;7.68;;
43807;SDS011;29438;50.664;10.098;2022-12-07T05:45:09;20.65;;;6.90;;
43807;SDS011;29438;50.664;10.098;2022-12-07T05:47:36;19.75;;;6.90;;
43807;SDS011;29438;50.664;10.098;2022-12-07T05:50:02;18.48;;;5.68;;
43807;SDS011;29438;50.664;10.098;2022-12-07T05:52:28;20.70;;;7.63;;
43807;SDS011;29438;50.664;10.098;2022-12-07T05:54:54;26.25;;;7.85;;
43807;SDS011;29438;50.664;10.098;2022-12-07T05:57:19;24.48;;;8.05;;
43807;SDS011;29438;50.664;10.098;2022-12-07T05:59:45;22.80;;;7.57;;
43807;SDS011;29438;50.664;10.098;2022-12-07T06:02:12;28.20;;;8.98;;
43807;SDS011;29438;50.664;10.098;2022-12-07T06:04:40;24.90;;;8.30;;
43807;SDS011;29438;50.664;10.098;2022-12-07T06:07:11;23.40;;;7.40;;
43807;SDS011;29438;50.664;10.098;2022-12-07T06:09:37;21.42;;;7.45;;
43807;SDS011;29438;50.664;10.098;2022-12-07T06:12:03;22.50;;;7.05;;
43807;SDS011;29438;50.664;10.098;2022-12-07T06:14:49;22.27;;;7.38;;
43807;SDS011;29438;50.664;10.098;2022-12-07T06:17:14;19.75;;;6.82;;
43807;SDS011;29438;50.664;10.098;2022-12-07T06:19:40;18.83;;;6.28;;
43807;SDS011;29438;50.664;10.098;2022-12-07T06:22:06;17.85;;;6.65;;
43807;SDS011;29438;50.664;10.098;2022-12-07T06:24:32;18.67;;;6.35;;
43807;SDS011;29438;50.664;10.098;2022-12-07T06:26:58;18.42;;;6.47;;
43807;SDS011;29438;50.664;10.098;2022-12-07T06:29:24;15.13;;;5.85;;
43807;SDS011;29438;50.664;10.098;2022-12-07T06:31:50;18.17;;;6.10;;
43807;SDS011;29438;50.664;10.098;2022-12-07T06:34:17;15.48;;;5.85;;
43807;SDS011;29438;50.664;10.098;2022-12-07T06:36:44;19.10;;;6.47;;
43807;SDS011;29438;50.664;10.098;2022-12-07T06:39:10;21.02;;;6.75;;
43807;SDS011;29438;50.664;10.098;2022-12-07T06:41:36;17.05;;;6.25;;
43807;SDS011;29438;50.664;10.098;2022-12-07T06:44:03;17.33;;;5.50;;
43807;SDS011;29438;50.664;10.098;2022-12-07T06:46:31;16.20;;;6.22;;
43807;SDS011;29438;50.664;10.098;2022-12-07T06:48:57;17.00;;;5.60;;
43807;SDS011;29438;50.664;10.098;2022-12-07T06:51:23;16.13;;;5.90;;
43807;SDS011;29438;50.664;10.098;2022-12-07T06:53:48;16.35;;;6.22;;
43807;SDS011;29438;50.664;10.098;2022-12-07T06:56:14;19.23;;;6.32;;
43807;SDS011;29438;50.664;10.098;2022-12-07T06:58:40;22.85;;;7.40;;
43807;SDS011;29438;50.664;10.098;2022-12-07T07:01:09;20.42;;;7.40;;
43807;SDS011;29438;50.664;10.098;2022-12-07T07:03:36;19.83;;;7.18;;
43807;SDS011;29438;50.664;10.098;2022-12-07T07:06:02;20.67;;;7.28;;
43807;SDS011;29438;50.664;10.098;2022-12-07T07:08:28;19.98;;;7.15;;
43807;SDS011;29438;50.664;10.098;2022-12-07T07:10:54;20.25;;;7.60;;
43807;SDS011;29438;50.664;10.098;2022-12-07T07:13:19;21.35;;;6.68;;
43807;SDS011;29438;50.664;10.098;2022-12-07T07:15:45;19.50;;;6.82;;
43807;SDS011;29438;50.664;10.098;2022-12-07T07:18:10;20.60;;;6.90;;
43807;SDS011;29438;50.664;10.098;2022-12-07T07:20:36;17.15;;;6.25;;
43807;SDS011;29438;50.664;10.098;2022-12-07T07:23:02;19.55;;;6.80;;
43807;SDS011;29438;50.664;10.098;2022-12-07T07:25:28;16.80;;;6.22;;
43807;SDS011;29438;50.664;10.098;2022-12-07T07:27:54;14.70;;;4.97;;
43807;SDS011;29438;50.664;10.098;2022-12-07T07:30:19;15.52;;;5.40;;
43807;SDS011;29438;50.664;10.098;2022-12-07T07:32:45;20.15;;;5.80;;
43807;SDS011;29438;50.664;10.098;2022-12-07T07:35:11;24.83;;;7.65;;
43807;SDS011;29438;50.664;10.098;2022-12-07T07:37:37;26.15;;;7.78;;
43807;SDS011;29438;50.664;10.098;2022-12-07T07:40:02;20.98;;;7.10;;
43807;SDS011;29438;50.664;10.098;2022-12-07T07:42:28;24.98;;;7.65;;
43807;SDS011;29438;50.664;10.098;2022-12-07T07:44:54;22.27;;;7.20;;
43807;SDS011;29438;50.664;10.098;2022-12-07T07:47:20;18.75;;;6.05;;
43807;SDS011;29438;50.664;10.098;2022-12-07T07:49:45;21.27;;;7.80;;
43807;SDS011;29438;50.664;10.098;2022-12-07T07:52:11;18.80;;;6.47;;
43807;SDS011;29438;50.664;10.098;2022-12-07T07:54:36;23.92;;;7.32;;
43807;SDS011;29438;50.664;10.098;2022-12-07T07:57:02;22.95;;;7.55;;
43807;SDS011;29438;50.664;10.098;2022-12-07T07:59:27;21.83;;;6.95;;
43807;SDS011;29438;50.664;10.098;2022-12-07T08:01:53;21.88;;;7.57;;
43807;SDS011;29438;50.664;10.098;2022-12-07T08:04:18;21.13;;;7.30;;
43807;SDS011;29438;50.664;10.098;2022-12-07T08:06:44;18.55;;;6.50;;
43807;SDS011;29438;50.664;10.098;2022-12-07T08:09:09;19.67;;;6.82;;
43807;SDS011;29438;50.664;10.098;2022-12-07T08:11:35;21.40;;;7.18;;
43807;SDS011;29438;50.664;10.098;2022-12-07T08:14:02;19.60;;;6.85;;
43807;SDS011;29438;50.664;10.098;2022-12-07T08:16:28;16.25;;;5.95;;
43807;SDS011;29438;50.664;10.098;2022-12-07T08:18:53;17.70;;;6.40;;
43807;SDS011;29438;50.664;10.098;2022-12-07T08:21:19;19.30;;;6.40;;
43807;SDS011;29438;50.664;10.098;2022-12-07T08:23:45;16.33;;;5.38;;
43807;SDS011;29438;50.664;10.098;2022-12-07T08:26:11;14.43;;;5.18;;
43807;SDS011;29438;50.664;10.098;2022-12-07T08:28:38;12.57;;;5.07;;
43807;SDS011;29438;50.664;10.098;2022-12-07T08:31:15;13.95;;;5.47;;
43807;SDS011;29438;50.664;10.098;2022-12-07T08:33:42;15.07;;;5.25;;
43807;SDS011;29438;50.664;10.098;2022-12-07T08:36:10;13.60;;;4.88;;
43807;SDS011;29438;50.664;10.098;2022-12-07T08:38:37;12.60;;;4.80;;
43807;SDS011;29438;50.664;10.098;2022-12-07T08:41:04;15.45;;;5.25;;
43807;SDS011;29438;50.664;10.098;2022-12-07T08:43:30;17.08;;;5.53;;
43807;SDS011;29438;50.664;10.098;2022-12-07T08:50:56;14.80;;;5.25;;
43807;SDS011;29438;50.664;10.098;2022-12-07T08:53:22;15.38;;;5.70;;
43807;SDS011;29438;50.664;10.098;2022-12-07T08:55:48;13.60;;;5.45;;
43807;SDS011;29438;50.664;10.098;2022-12-07T08:58:14;12.13;;;5.15;;
43807;SDS011;29438;50.664;10.098;2022-12-07T09:00:40;13.63;;;5.18;;
43807;SDS011;29438;50.664;10.098;2022-12-07T09:03:05;12.82;;;4.63;;
43807;SDS011;29438;50.664;10.098;2022-12-07T09:05:32;14.05;;;5.95;;
43807;SDS011;29438;50.664;10.098;2022-12-07T09:07:59;14.38;;;5.50;;
43807;SDS011;29438;50.664;10.098;2022-12-07T09:10:26;16.63;;;5.65;;
43807;SDS011;29438;50.664;10.098;2022-12-07T09:12:52;12.93;;;4.07;;
43807;SDS011;29438;50.664;10.098;2022-12-07T09:15:18;13.68;;;5.68;;
43807;SDS011;29438;50.664;10.098;2022-12-07T09:17:43;11.75;;;4.97;;
43807;SDS011;29438;50.664;10.098;2022-12-07T09:20:09;12.27;;;5.22;;
43807;SDS011;29438;50.664;10.098;2022-12-07T09:22:35;12.75;;;5.43;;
43807;SDS011;29438;50.664;10.098;2022-12-07T09:25:01;17.58;;;6.10;;
43807;SDS011;29438;50.664;10.098;2022-12-07T09:27:28;12.52;;;5.18;;
43807;SDS011;29438;50.664;10.098;2022-12-07T09:29:53;12.65;;;5.03;;
43807;SDS011;29438;50.664;10.098;2022-12-07T09:32:19;15.80;;;5.57;;
43807;SDS011;29438;50.664;10.098;2022-12-07T09:34:44;15.45;;;5.40;;
43807;SDS011;29438;50.664;10.098;2022-12-07T09:37:10;12.38;;;4.70;;
43807;SDS011;29438;50.664;10.098;2022-12-07T09:39:39;13.82;;;5.05;;
43807;SDS011;29438;50.664;10.098;2022-12-07T09:42:05;12.35;;;4.90;;
43807;SDS011;29438;50.664;10.098;2022-12-07T09:44:32;12.27;;;4.85;;
43807;SDS011;29438;50.664;10.098;2022-12-07T09:46:58;15.05;;;5.05;;
43807;SDS011;29438;50.664;10.098;2022-12-07T09:49:25;12.75;;;4.75;;
43807;SDS011;29438;50.664;10.098;2022-12-07T09:52:16;11.55;;;4.15;;
43807;SDS011;29438;50.664;10.098;2022-12-07T09:54:45;11.13;;;4.45;;
43807;SDS011;29438;50.664;10.098;2022-12-07T09:57:13;12.82;;;4.85;;
43807;SDS011;29438;50.664;10.098;2022-12-07T09:59:39;12.38;;;4.57;;
43807;SDS011;29438;50.664;10.098;2022-12-07T10:02:52;14.48;;;5.40;;
43807;SDS011;29438;50.664;10.098;2022-12-07T10:04:51;10.90;;;4.78;;
43807;SDS011;29438;50.664;10.098;2022-12-07T10:07:17;7.85;;;3.42;;
43807;SDS011;29438;50.664;10.098;2022-12-07T10:09:44;9.23;;;3.45;;
43807;SDS011;29438;50.664;10.098;2022-12-07T10:12:10;8.95;;;3.58;;
43807;SDS011;29438;50.664;10.098;2022-12-07T10:14:38;11.73;;;3.20;;
43807;SDS011;29438;50.664;10.098;2022-12-07T10:22:53;9.70;;;4.47;;
43807;SDS011;29438;50.664;10.098;2022-12-07T10:25:20;8.40;;;3.58;;
43807;SDS011;29438;50.664;10.098;2022-12-07T10:28:33;11.10;;;4.18;;
43807;SDS011;29438;50.664;10.098;2022-12-07T10:30:33;10.23;;;3.95;;
43807;SDS011;29438;50.664;10.098;2022-12-07T10:39:10;11.38;;;3.92;;
43807;SDS011;29438;50.664;10.098;2022-12-07T10:44:25;13.15;;;5.28;;
43807;SDS011;29438;50.664;10.098;2022-12-07T10:49:37;11.32;;;4.97;;
43807;SDS011;29438;50.664;10.098;2022-12-07T10:57:25;11.73;;;4.75;;
43807;SDS011;29438;50.664;10.098;2022-12-07T11:00:21;16.70;;;5.53;;
43807;SDS011;29438;50.664;10.098;2022-12-07T11:03:17;14.60;;;5.72;;
43807;SDS011;29438;50.664;10.098;2022-12-07T11:06:03;13.00;;;5.03;;
43807;SDS011;29438;50.664;10.098;2022-12-07T11:11:36;10.27;;;3.92;;
43807;SDS011;29438;50.664;10.098;2022-12-07T11:17:03;14.80;;;4.80;;
43807;SDS011;29438;50.664;10.098;2022-12-07T11:19:59;12.10;;;4.15;;
43807;SDS011;29438;50.664;10.098;2022-12-07T11:22:30;12.45;;;4.53;;
43807;SDS011;29438;50.664;10.098;2022-12-07T11:27:52;7.45;;;2.78;;
43807;SDS011;29438;50.664;10.098;2022-12-07T11:38:38;8.15;;;2.40;;
43807;SDS011;29438;50.664;10.098;2022-12-07T11:41:09;7.55;;;2.65;;
43807;SDS011;29438;50.664;10.098;2022-12-07T11:43:42;7.22;;;2.20;;
43807;SDS011;29438;50.664;10.098;2022-12-07T11:46:29;7.22;;;2.63;;
43807;SDS011;29438;50.664;10.098;2022-12-07T11:49:43;7.57;;;2.40;;
43807;SDS011;29438;50.664;10.098;2022-12-07T11:52:20;6.68;;;2.35;;
43807;SDS011;29438;50.664;10.098;2022-12-07T11:54:51;7.93;;;2.25;;
43807;SDS011;29438;50.664;10.098;2022-12-07T11:57:32;6.43;;;2.70;;
43807;SDS011;29438;50.664;10.098;2022-12-07T12:00:03;5.18;;;2.10;;
43807;SDS011;29438;50.664;10.098;2022-12-07T12:02:34;5.55;;;2.03;;
43807;SDS011;29438;50.664;10.098;2022-12-07T12:05:15;4.53;;;1.60;;
43807;SDS011;29438;50.664;10.098;2022-12-07T12:07:44;3.92;;;1.50;;
43807;SDS011;29438;50.664;10.098;2022-12-07T12:10:37;5.75;;;2.22;;
43807;SDS011;29438;50.664;10.098;2022-12-07T12:15:57;7.03;;;2.28;;
43807;SDS011;29438;50.664;10.098;2022-12-07T12:18:50;4.70;;;2.00;;
43807;SDS011;29438;50.664;10.098;2022-12-07T12:21:26;4.05;;;1.80;;
43807;SDS011;29438;50.664;10.098;2022-12-07T12:24:00;7.57;;;2.10;;
43807;SDS011;29438;50.664;10.098;2022-12-07T12:26:31;12.93;;;3.00;;
43807;SDS011;29438;50.664;10.098;2022-12-07T12:33:59;12.07;;;3.67;;
43807;SDS011;29438;50.664;10.098;2022-12-07T12:39:16;12.45;;;4.50;;
43807;SDS011;29438;50.664;10.098;2022-12-07T12:51:49;7.68;;;2.33;;
43807;SDS011;29438;50.664;10.098;2022-12-07T13:02:29;6.82;;;2.35;;
43807;SDS011;29438;50.664;10.098;2022-12-07T13:10:54;4.65;;;2.22;;
43807;SDS011;29438;50.664;10.098;2022-12-07T13:13:28;9.15;;;3.55;;
43807;SDS011;29438;50.664;10.098;2022-12-07T13:20:58;7.28;;;3.20;;
43807;SDS011;29438;50.664;10.098;2022-12-07T13:28:26;4.68;;;2.08;;
43807;SDS011;29438;50.664;10.098;2022-12-07T13:33:50;9.57;;;2.53;;
43807;SDS011;29438;50.664;10.098;2022-12-07T13:36:17;6.78;;;2.17;;
43807;SDS011;29438;50.664;10.098;2022-12-07T13:38:49;5.70;;;2.08;;
43807;SDS011;29438;50.664;10.098;2022-12-07T13:41:35;5.25;;;2.08;;
43807;SDS011;29438;50.664;10.098;2022-12-07T13:44:02;7.75;;;2.25;;
43807;SDS011;29438;50.664;10.098;2022-12-07T13:46:41;8.15;;;2.95;;
43807;SDS011;29438;50.664;10.098;2022-12-07T13:52:23;6.82;;;2.67;;
43807;SDS011;29438;50.664;10.098;2022-12-07T13:57:31;5.03;;;2.00;;
43807;SDS011;29438;50.664;10.098;2022-12-07T14:00:00;5.80;;;1.98;;
43807;SDS011;29438;50.664;10.098;2022-12-07T14:02:31;6.18;;;2.15;;
43807;SDS011;29438;50.664;10.098;2022-12-07T14:05:15;8.63;;;2.33;;
43807;SDS011;29438;50.664;10.098;2022-12-07T14:07:59;8.32;;;2.38;;
43807;SDS011;29438;50.664;10.098;2022-12-07T14:13:28;7.30;;;2.75;;
43807;SDS011;29438;50.664;10.098;2022-12-07T14:15:55;7.70;;;2.50;;
43807;SDS011;29438;50.664;10.098;2022-12-07T14:23:35;6.13;;;2.55;;
43807;SDS011;29438;50.664;10.098;2022-12-07T14:26:16;9.05;;;3.00;;
43807;SDS011;29438;50.664;10.098;2022-12-07T14:28:45;5.80;;;2.85;;
43807;SDS011;29438;50.664;10.098;2022-12-07T14:31:12;10.50;;;3.17;;
43807;SDS011;29438;50.664;10.098;2022-12-07T14:33:43;10.32;;;3.15;;
43807;SDS011;29438;50.664;10.098;2022-12-07T14:36:09;9.75;;;3.22;;
43807;SDS011;29438;50.664;10.098;2022-12-07T14:38:36;8.60;;;3.22;;
43807;SDS011;29438;50.664;10.098;2022-12-07T14:41:03;9.25;;;3.00;;
43807;SDS011;29438;50.664;10.098;2022-12-07T14:43:49;7.18;;;2.70;;
43807;SDS011;29438;50.664;10.098;2022-12-07T14:46:14;8.07;;;3.75;;
43807;SDS011;29438;50.664;10.098;2022-12-07T14:48:40;9.88;;;2.60;;
43807;SDS011;29438;50.664;10.098;2022-12-07T14:51:07;9.02;;;2.67;;
43807;SDS011;29438;50.664;10.098;2022-12-07T14:53:37;10.45;;;3.00;;
43807;SDS011;29438;50.664;10.098;2022-12-07T14:56:05;23.70;;;6.82;;
43807;SDS011;29438;50.664;10.098;2022-12-07T14:58:31;25.15;;;6.45;;
43807;SDS011;29438;50.664;10.098;2022-12-07T15:00:57;7.00;;;2.35;;
43807;SDS011;29438;50.664;10.098;2022-12-07T15:03:23;6.47;;;2.30;;
43807;SDS011;29438;50.664;10.098;2022-12-07T15:05:49;21.20;;;6.10;;
43807;SDS011;29438;50.664;10.098;2022-12-07T15:08:14;11.75;;;4.30;;
43807;SDS011;29438;50.664;10.098;2022-12-07T15:10:40;8.27;;;2.25;;
43807;SDS011;29438;50.664;10.098;2022-12-07T15:13:05;13.02;;;4.28;;
43807;SDS011;29438;50.664;10.098;2022-12-07T15:15:51;18.35;;;5.63;;
43807;SDS011;29438;50.664;10.098;2022-12-07T15:18:18;12.48;;;3.80;;
43807;SDS011;29438;50.664;10.098;2022-12-07T15:20:44;10.20;;;3.25;;
43807;SDS011;29438;50.664;10.098;2022-12-07T15:23:11;9.65;;;4.00;;
43807;SDS011;29438;50.664;10.098;2022-12-07T15:25:40;8.25;;;3.20;;
43807;SDS011;29438;50.664;10.098;2022-12-07T15:28:06;7.25;;;2.67;;
43807;SDS011;29438;50.664;10.098;2022-12-07T15:30:31;9.82;;;3.10;;
43807;SDS011;29438;50.664;10.098;2022-12-07T15:32:57;6.85;;;2.33;;
43807;SDS011;29438;50.664;10.098;2022-12-07T15:35:23;4.63;;;1.88;;
43807;SDS011;29438;50.664;10.098;2022-12-07T15:37:48;9.23;;;3.28;;
43807;SDS011;29438;50.664;10.098;2022-12-07T15:40:14;7.53;;;2.55;;
43807;SDS011;29438;50.664;10.098;2022-12-07T15:42:39;5.60;;;2.20;;
43807;SDS011;29438;50.664;10.098;2022-12-07T15:45:06;5.65;;;2.20;;
43807;SDS011;29438;50.664;10.098;2022-12-07T15:47:37;5.97;;;2.50;;
43807;SDS011;29438;50.664;10.098;2022-12-07T15:50:10;7.95;;;2.45;;
43807;SDS011;29438;50.664;10.098;2022-12-07T15:52:38;7.30;;;2.05;;
43807;SDS011;29438;50.664;10.098;2022-12-07T15:55:04;5.03;;;2.17;;
43807;SDS011;29438;50.664;10.098;2022-12-07T15:57:30;6.10;;;2.38;;
43807;SDS011;29438;50.664;10.098;2022-12-07T15:59:57;5.60;;;2.05;;
43807;SDS011;29438;50.664;10.098;2022-12-07T16:02:23;7.20;;;2.47;;
43807;SDS011;29438;50.664;10.098;2022-12-07T16:04:49;7.80;;;2.08;;
43807;SDS011;29438;50.664;10.098;2022-12-07T16:07:15;6.95;;;2.33;;
43807;SDS011;29438;50.664;10.098;2022-12-07T16:09:41;6.50;;;2.50;;
43807;SDS011;29438;50.664;10.098;2022-12-07T16:12:07;5.78;;;2.30;;
43807;SDS011;29438;50.664;10.098;2022-12-07T16:14:34;7.70;;;2.65;;
43807;SDS011;29438;50.664;10.098;2022-12-07T16:16:59;9.90;;;2.95;;
43807;SDS011;29438;50.664;10.098;2022-12-07T16:19:25;8.55;;;2.60;;
43807;SDS011;29438;50.664;10.098;2022-12-07T16:21:51;7.20;;;2.42;;
43807;SDS011;29438;50.664;10.098;2022-12-07T16:24:16;5.63;;;2.10;;
43807;SDS011;29438;50.664;10.098;2022-12-07T16:26:43;8.27;;;2.65;;
43807;SDS011;29438;50.664;10.098;2022-12-07T16:29:12;9.35;;;3.58;;
43807;SDS011;29438;50.664;10.098;2022-12-07T16:31:38;11.32;;;4.75;;
43807;SDS011;29438;50.664;10.098;2022-12-07T16:34:04;12.80;;;4.30;;
43807;SDS011;29438;50.664;10.098;2022-12-07T16:36:29;11.23;;;4.72;;
43807;SDS011;29438;50.664;10.098;2022-12-07T16:38:57;14.50;;;5.40;;
43807;SDS011;29438;50.664;10.098;2022-12-07T16:41:23;13.20;;;5.70;;
43807;SDS011;29438;50.664;10.098;2022-12-07T16:43:49;13.20;;;4.88;;
43807;SDS011;29438;50.664;10.098;2022-12-07T16:46:15;12.43;;;5.05;;
43807;SDS011;29438;50.664;10.098;2022-12-07T16:48:41;18.75;;;8.63;;
43807;SDS011;29438;50.664;10.098;2022-12-07T16:51:08;15.55;;;6.22;;
43807;SDS011;29438;50.664;10.098;2022-12-07T16:53:37;15.68;;;7.22;;
43807;SDS011;29438;50.664;10.098;2022-12-07T16:56:04;12.27;;;5.20;;
43807;SDS011;29438;50.664;10.098;2022-12-07T16:58:34;11.45;;;4.72;;
43807;SDS011;29438;50.664;10.098;2022-12-07T17:00:59;18.30;;;7.07;;
43807;SDS011;29438;50.664;10.098;2022-12-07T17:03:33;13.20;;;5.50;;
43807;SDS011;29438;50.664;10.098;2022-12-07T17:05:59;11.50;;;4.85;;